Time;durP1;ratioP1;P1;durP2;ratioP2;P2;SDS_P1;SDS_P2;PMS_P1;PMS_P2;Temp;Humidity;BMP_temperature;BMP_pressure;BME280_temperature;BME280_humidity;BME280_pressure;Samples;Min_cycle;Max_cycle;Signal;HPM_P1;HPM_P2
2021/08/13 00:02:10;;;;;;;13.50;5.03;;;;;;;23.76;62.86;99182.75;5047217;28;20030;-49
2021/08/13 00:04:36;;;;;;;13.85;4.65;;;;;;;23.41;63.31;99184.50;5031845;28;20021;-49
2021/08/13 00:07:02;;;;;;;23.80;6.47;;;;;;;22.86;64.88;99179.75;5047061;28;20036;-50
2021/08/13 00:09:28;;;;;;;66.78;59.45;;;;;;;22.52;65.76;99179.50;5047168;28;20029;-50
2021/08/13 00:11:54;;;;;;;16.15;7.63;;;;;;;22.45;66.77;99186.97;5047144;28;20553;-50
2021/08/13 00:14:20;;;;;;;17.17;6.47;;;;;;;22.35;67.18;99185.06;5031769;28;20026;-49
2021/08/13 00:16:46;;;;;;;24.58;16.08;;;;;;;22.42;68.11;99185.63;5031505;28;20079;-49
2021/08/13 00:19:11;;;;;;;12.55;4.75;;;;;;;22.74;67.36;99188.06;5030389;28;20124;-49
2021/08/13 00:21:37;;;;;;;18.20;7.55;;;;;;;22.82;66.49;99188.56;5031755;28;20152;-49
2021/08/13 00:24:03;;;;;;;19.20;10.43;;;;;;;22.90;66.81;99190.75;5031535;28;20050;-49
2021/08/13 00:26:29;;;;;;;62.60;56.45;;;;;;;23.36;66.18;99187.19;5031658;28;20040;-49
2021/08/13 00:28:55;;;;;;;16.35;13.50;;;;;;;23.61;64.75;99189.00;5047268;28;20037;-50
2021/08/13 00:31:21;;;;;;;36.30;32.05;;;;;;;23.60;64.51;99192.75;5031567;28;20108;-49
2021/08/13 00:33:46;;;;;;;14.10;7.85;;;;;;;23.68;63.93;99198.34;5047023;28;20255;-49
2021/08/13 00:36:12;;;;;;;34.35;30.60;;;;;;;23.56;63.72;99194.38;5031579;28;20053;-49
2021/08/13 00:38:38;;;;;;;13.88;5.45;;;;;;;23.62;63.71;99186.03;5031607;28;20037;-49
2021/08/13 00:41:04;;;;;;;14.95;5.78;;;;;;;23.36;64.13;99182.63;5046790;28;20105;-49
2021/08/13 00:43:30;;;;;;;19.80;10.13;;;;;;;23.10;65.40;99189.91;5031784;28;20109;-49
2021/08/13 00:45:56;;;;;;;12.82;7.45;;;;;;;23.32;65.28;99190.44;5031421;28;20025;-49
2021/08/13 00:48:21;;;;;;;14.52;5.25;;;;;;;23.24;65.06;99185.63;5031690;28;20033;-49
2021/08/13 00:50:48;;;;;;;14.35;6.35;;;;;;;23.05;65.54;99181.91;5031515;28;20549;-49
2021/08/13 00:53:14;;;;;;;35.50;12.98;;;;;;;22.70;66.24;99164.78;5046702;28;20025;-50
2021/08/13 00:55:40;;;;;;;135.68;122.13;;;;;;;22.49;67.63;99163.97;5031654;28;20394;-49
2021/08/13 00:58:07;;;;;;;28.33;22.38;;;;;;;22.54;67.87;99180.03;5031403;28;20025;-49
2021/08/13 01:00:34;;;;;;;14.82;6.18;;;;;;;22.59;67.11;99173.88;5031279;28;20184;-49
2021/08/13 01:03:00;;;;;;;34.30;21.30;;;;;;;22.64;67.71;99168.53;5031369;28;20022;-49
2021/08/13 01:05:26;;;;;;;16.65;5.00;;;;;;;22.87;66.98;99170.66;5031282;28;20104;-49
2021/08/13 01:07:52;;;;;;;13.73;5.30;;;;;;;22.78;66.69;99166.94;5029964;28;20116;-49
2021/08/13 01:10:18;;;;;;;11.68;4.90;;;;;;;22.46;66.64;99165.31;5031255;28;20017;-49
2021/08/13 01:12:53;;;;;;;21.45;13.20;;;;;;;22.56;67.78;99180.56;5030009;28;20407;-49
2021/08/13 01:15:20;;;;;;;33.83;21.92;;;;;;;23.20;66.80;99186.41;5031228;28;20025;-49
2021/08/13 01:17:51;;;;;;;30.95;24.23;;;;;;;23.72;65.14;99177.16;5031147;28;20025;-49
2021/08/13 01:20:38;;;;;;;27.30;16.70;;;;;;;24.06;63.63;99177.28;5031208;28;20072;-50
2021/08/13 01:23:15;;;;;;;17.10;7.45;;;;;;;23.83;63.35;99172.59;5030965;28;20045;-49
2021/08/13 01:25:49;;;;;;;16.92;8.20;;;;;;;23.49;64.45;99192.78;5031143;28;20069;-49
2021/08/13 01:28:48;;;;;;;12.02;4.60;;;;;;;23.24;64.82;99211.59;5032101;28;20115;-49
2021/08/13 01:31:25;;;;;;;22.13;10.43;;;;;;;23.06;65.57;99207.59;5034739;28;20048;-49
2021/08/13 01:33:57;;;;;;;10.52;5.22;;;;;;;23.08;65.04;99200.91;5034753;28;20029;-50
2021/08/13 01:36:27;;;;;;;20.25;12.30;;;;;;;23.03;66.16;99198.22;5034969;28;20084;-49
2021/08/13 01:38:55;;;;;;;21.08;7.53;;;;;;;23.45;65.15;99190.94;5049911;28;20407;-49
2021/08/13 01:41:22;;;;;;;18.42;14.80;;;;;;;23.73;64.28;99200.22;5034452;28;20060;-49
2021/08/13 01:43:50;;;;;;;22.85;8.82;;;;;;;23.69;64.29;99199.16;5034539;28;20510;-49
2021/08/13 01:46:16;;;;;;;22.13;10.70;;;;;;;23.85;63.98;99194.56;5034368;28;20066;-49
2021/08/13 01:48:44;;;;;;;48.45;43.47;;;;;;;24.00;63.64;99191.00;5033096;28;20030;-49
2021/08/13 01:51:15;;;;;;;28.27;19.77;;;;;;;24.20;63.07;99190.06;5049633;28;20036;-49
2021/08/13 01:53:42;;;;;;;18.58;11.40;;;;;;;24.28;62.44;99195.66;5034298;28;20026;-49
2021/08/13 01:56:08;;;;;;;23.17;14.45;;;;;;;24.19;62.34;99202.69;5034253;28;20553;-49
2021/08/13 01:58:34;;;;;;;27.73;24.75;;;;;;;24.20;62.27;99206.16;5034173;28;20025;-50
2021/08/13 02:01:00;;;;;;;38.25;34.38;;;;;;;24.30;62.40;99211.47;5034079;28;20527;-49
2021/08/13 02:03:26;;;;;;;27.70;21.95;;;;;;;24.40;61.95;99206.03;5034147;28;20095;-49
2021/08/13 02:05:54;;;;;;;22.90;17.88;;;;;;;24.36;61.96;99213.03;5033965;28;20476;-50
2021/08/13 02:08:21;;;;;;;14.05;7.47;;;;;;;24.44;61.66;99201.72;5034253;28;20392;-49
2021/08/13 02:10:49;;;;;;;15.85;5.65;;;;;;;24.27;61.60;99204.00;5033957;28;20068;-49
2021/08/13 02:13:15;;;;;;;18.15;9.15;;;;;;;23.85;62.68;99206.06;5049267;28;20103;-49
2021/08/13 02:15:46;;;;;;;15.05;5.53;;;;;;;23.66;63.18;99203.19;5033892;28;20121;-49
2021/08/13 02:18:17;;;;;;;22.35;9.88;;;;;;;23.56;62.70;99197.84;5032566;28;20025;-49
2021/08/13 02:20:46;;;;;;;28.35;21.95;;;;;;;23.49;63.13;99206.19;5032514;28;20039;-49
2021/08/13 02:23:19;;;;;;;16.60;8.15;;;;;;;23.11;63.74;99204.91;5033509;28;20042;-49
2021/08/13 02:25:46;;;;;;;11.70;5.63;;;;;;;22.74;64.86;99201.44;5033556;28;20049;-49
2021/08/13 02:28:12;;;;;;;20.60;14.07;;;;;;;22.69;65.43;99211.34;5033591;28;20032;-49
2021/08/13 02:30:39;;;;;;;37.45;33.00;;;;;;;22.96;65.22;99203.03;5033582;28;20045;-50
2021/08/13 02:33:06;;;;;;;16.70;7.45;;;;;;;23.02;64.56;99201.16;5033528;28;20026;-49
2021/08/13 02:35:32;;;;;;;13.82;5.43;;;;;;;22.61;64.78;99203.84;5032171;28;20037;-49
2021/08/13 02:38:10;;;;;;;17.02;9.00;;;;;;;22.04;66.54;99197.56;5033371;28;20029;-49
2021/08/13 02:41:03;;;;;;;36.42;32.55;;;;;;;22.16;67.55;99205.34;5033599;28;20033;-50
2021/08/13 02:43:52;;;;;;;72.88;63.13;;;;;;;22.70;65.95;99205.72;5033634;28;20033;-49
2021/08/13 02:46:20;;;;;;;30.73;27.15;;;;;;;22.91;65.14;99195.81;5031844;28;20036;-50
2021/08/13 02:48:47;;;;;;;11.50;5.57;;;;;;;22.66;65.01;99198.50;5033476;28;20026;-49
2021/08/13 02:51:17;;;;;;;11.85;6.20;;;;;;;22.11;66.06;99198.94;5033170;28;20116;-49
2021/08/13 02:53:47;;;;;;;11.40;4.90;;;;;;;21.70;67.18;99208.66;5033328;28;20047;-49
2021/08/13 02:56:15;;;;;;;15.70;5.75;;;;;;;21.56;67.90;99216.34;5033017;28;20029;-52
2021/08/13 02:58:48;;;;;;;18.25;11.43;;;;;;;21.64;68.22;99210.50;5033111;28;20837;-52
2021/08/13 03:01:27;;;;;;;16.33;9.38;;;;;;;21.93;67.81;99212.75;5033063;28;20056;-52
2021/08/13 03:03:55;;;;;;;22.73;13.85;;;;;;;22.17;66.94;99214.97;5032994;28;20029;-52
2021/08/13 03:06:24;;;;;;;24.33;16.75;;;;;;;22.30;66.75;99215.31;5048106;28;20029;-52
2021/08/13 03:08:51;;;;;;;84.82;76.78;;;;;;;22.59;66.28;99216.69;5048134;28;20028;-52
2021/08/13 03:11:20;;;;;;;201.13;181.63;;;;;;;23.00;65.76;99217.50;5032783;28;20440;-52
2021/08/13 03:13:45;;;;;;;27.50;15.38;;;;;;;23.06;64.88;99220.97;5048033;28;20032;-52
2021/08/13 03:16:12;;;;;;;21.83;11.38;;;;;;;22.84;64.90;99219.38;5032674;28;20033;-52
2021/08/13 03:18:41;;;;;;;53.40;48.42;;;;;;;22.78;65.41;99223.13;5032592;28;20022;-52
2021/08/13 03:21:09;;;;;;;25.25;14.45;;;;;;;22.95;65.33;99225.50;5032629;28;20029;-51
2021/08/13 03:23:38;;;;;;;48.55;43.60;;;;;;;23.36;64.30;99224.69;5030915;28;20045;-52
2021/08/13 03:26:06;;;;;;;46.40;40.65;;;;;;;23.62;63.82;99223.53;5032386;28;20030;-52
2021/08/13 03:28:34;;;;;;;82.60;74.30;;;;;;;23.81;63.18;99221.09;5032550;28;20400;-52
2021/08/13 03:31:00;;;;;;;144.02;128.93;;;;;;;23.98;62.55;99223.44;5047727;28;20160;-52
2021/08/13 03:33:26;;;;;;;35.58;30.58;;;;;;;24.04;61.94;99218.84;5032403;28;20033;-52
2021/08/13 03:35:52;;;;;;;22.10;10.32;;;;;;;23.89;61.76;99225.91;5031025;28;20517;-52
2021/08/13 03:38:18;;;;;;;302.55;272.20;;;;;;;23.62;62.36;99218.19;5047635;28;20108;-52
2021/08/13 03:40:43;;;;;;;71.45;63.88;;;;;;;23.48;63.09;99226.03;5032276;28;20487;-52
2021/08/13 03:43:09;;;;;;;70.13;63.08;;;;;;;23.55;62.63;99227.59;5047497;28;20029;-52
2021/08/13 03:45:37;;;;;;;181.93;164.85;;;;;;;23.53;62.01;99222.50;5032448;28;20024;-52
2021/08/13 03:48:04;;;;;;;45.45;40.90;;;;;;;23.26;61.59;99220.16;5032078;28;20044;-52
2021/08/13 03:50:29;;;;;;;56.15;50.65;;;;;;;22.67;62.86;99205.44;5031783;28;20025;-52
2021/08/13 03:52:55;;;;;;;71.70;64.70;;;;;;;22.11;64.56;99220.31;5031932;28;20033;-52
2021/08/13 03:55:20;;;;;;;312.77;231.25;;;;;;;21.81;65.75;99210.31;5032309;28;20120;-52
2021/08/13 03:57:46;;;;;;;22.23;11.18;;;;;;;21.44;66.79;99218.41;5047295;28;20123;-52
2021/08/13 04:00:13;;;;;;;13.27;6.75;;;;;;;21.02;68.44;99208.50;5032046;28;20045;-52
2021/08/13 04:02:38;;;;;;;15.23;5.93;;;;;;;20.69;69.74;99207.72;5030719;28;20029;-51
2021/08/13 04:05:04;;;;;;;13.50;6.00;;;;;;;20.36;70.69;99198.81;5047189;28;20029;-51
2021/08/13 04:07:31;;;;;;;17.65;8.93;;;;;;;20.17;71.45;99202.91;5031854;28;20037;-51
2021/08/13 04:09:57;;;;;;;16.75;6.75;;;;;;;20.08;71.89;99207.88;5031835;28;20029;-52
2021/08/13 04:12:22;;;;;;;16.70;8.00;;;;;;;20.04;72.33;99201.44;5031788;28;20435;-52
2021/08/13 04:14:48;;;;;;;23.42;13.77;;;;;;;20.19;72.10;99198.94;5031806;28;20495;-52
2021/08/13 04:17:14;;;;;;;26.23;16.45;;;;;;;20.41;71.40;99203.44;5047064;28;20099;-52
2021/08/13 04:19:41;;;;;;;45.88;27.88;;;;;;;20.41;71.13;99204.22;5047318;28;20030;-52
2021/08/13 04:22:07;;;;;;;64.25;36.97;;;;;;;20.33;71.20;99207.34;5031569;28;20127;-52
2021/08/13 04:24:33;;;;;;;33.08;16.35;;;;;;;20.24;71.73;99216.84;5031760;28;20201;-52
2021/08/13 04:27:00;;;;;;;13.18;6.93;;;;;;;20.14;71.81;99218.34;5032100;28;20406;-51
2021/08/13 04:29:26;;;;;;;24.13;12.52;;;;;;;20.08;71.98;99219.34;5030346;28;20029;-52
2021/08/13 04:31:52;;;;;;;17.48;7.43;;;;;;;20.07;72.18;99227.59;5031633;28;20030;-52
2021/08/13 04:34:18;;;;;;;45.47;35.80;;;;;;;20.11;72.26;99223.38;5046958;28;20100;-52
2021/08/13 04:36:44;;;;;;;49.92;42.08;;;;;;;20.29;71.89;99214.22;5031532;28;20217;-52
2021/08/13 04:39:10;;;;;;;37.22;33.35;;;;;;;20.55;71.20;99213.41;5046882;28;20030;-52
2021/08/13 04:41:36;;;;;;;179.05;161.80;;;;;;;20.73;70.65;99220.28;5031582;28;20026;-52
2021/08/13 04:44:02;;;;;;;46.58;41.58;;;;;;;20.89;69.89;99218.53;5031498;28;20386;-52
2021/08/13 04:46:28;;;;;;;52.47;47.38;;;;;;;21.01;69.38;99222.91;5046717;28;20034;-52
2021/08/13 04:48:54;;;;;;;218.70;196.20;;;;;;;21.13;68.99;99218.19;5031695;28;20083;-52
2021/08/13 04:51:19;;;;;;;425.52;383.33;;;;;;;21.30;68.66;99221.50;5031425;28;20061;-51
2021/08/13 04:53:45;;;;;;;62.33;46.22;;;;;;;21.48;68.28;99216.81;5046750;28;20024;-52
2021/08/13 04:56:10;;;;;;;38.85;25.17;;;;;;;21.46;67.92;99217.09;5046708;28;20087;-52
2021/08/13 04:58:36;;;;;;;23.63;10.65;;;;;;;21.29;68.05;99214.56;5031672;28;20018;-52
2021/08/13 05:01:02;;;;;;;18.50;8.48;;;;;;;21.24;68.45;99216.38;5031366;28;20025;-52
2021/08/13 05:03:28;;;;;;;13.27;4.60;;;;;;;21.27;68.37;99213.19;5048240;28;20487;-52
2021/08/13 05:05:54;;;;;;;14.10;6.38;;;;;;;21.26;68.38;99223.06;5050393;28;20113;-51
2021/08/13 05:08:19;;;;;;;93.57;84.20;;;;;;;21.31;68.21;99222.31;5050539;28;20021;-52
2021/08/13 05:10:45;;;;;;;15.48;5.28;;;;;;;21.56;67.65;99227.03;5035094;28;20025;-52
2021/08/13 05:13:11;;;;;;;15.63;4.38;;;;;;;21.74;67.06;99229.25;5035007;28;20022;-52
2021/08/13 05:15:37;;;;;;;13.95;4.05;;;;;;;21.85;66.11;99237.31;5050345;28;20044;-52
2021/08/13 05:18:04;;;;;;;15.30;9.23;;;;;;;22.00;66.11;99226.69;5033608;28;20495;-51
2021/08/13 05:20:30;;;;;;;14.73;4.70;;;;;;;22.15;65.18;99231.25;5034923;28;20022;-50
2021/08/13 05:22:55;;;;;;;14.10;5.90;;;;;;;22.35;64.82;99230.53;5034624;28;20057;-52
2021/08/13 05:25:21;;;;;;;12.57;4.47;;;;;;;22.44;64.19;99237.00;5034829;28;20021;-52
2021/08/13 05:27:47;;;;;;;9.55;4.50;;;;;;;22.36;64.43;99244.75;5034712;28;20064;-51
2021/08/13 05:30:16;;;;;;;10.55;4.47;;;;;;;22.26;64.58;99235.63;5033442;28;20030;-52
2021/08/13 05:32:43;;;;;;;17.55;4.47;;;;;;;22.29;64.66;99236.94;5034697;28;20026;-51
2021/08/13 05:35:10;;;;;;;25.67;13.85;;;;;;;22.56;64.77;99246.63;5034604;28;20025;-51
2021/08/13 05:37:35;;;;;;;23.88;10.93;;;;;;;23.06;63.58;99248.56;5033485;28;20095;-51
2021/08/13 05:40:05;;;;;;;17.92;5.50;;;;;;;23.71;61.95;99245.25;5034815;28;20029;-52
2021/08/13 05:42:31;;;;;;;21.40;8.05;;;;;;;24.36;60.01;99241.75;5049834;28;20025;-52
2021/08/13 05:44:57;;;;;;;22.20;16.00;;;;;;;25.01;58.15;99238.88;5034698;28;20431;-51
2021/08/13 05:47:22;;;;;;;29.33;17.10;;;;;;;25.76;56.73;99234.94;5034302;28;20187;-52
2021/08/13 05:49:48;;;;;;;10.93;4.97;;;;;;;26.39;54.80;99229.28;5049654;28;20029;-52
2021/08/13 05:52:14;;;;;;;19.48;13.55;;;;;;;26.97;53.96;99241.59;5034573;28;20123;-51
2021/08/13 05:54:39;;;;;;;61.53;54.97;;;;;;;27.94;51.42;99232.84;5049606;28;20377;-52
2021/08/13 05:57:05;;;;;;;21.10;9.18;;;;;;;28.45;49.86;99239.81;5034238;28;20033;-52
2021/08/13 05:59:31;;;;;;;789.70;705.70;;;;;;;28.07;50.47;99237.41;5032901;28;20033;-52
2021/08/13 06:01:56;;;;;;;517.03;379.13;;;;;;;27.82;51.08;99242.22;5049395;28;20462;-52
2021/08/13 06:04:22;;;;;;;193.82;128.57;;;;;;;27.58;51.05;99241.63;5034136;28;20613;-52
2021/08/13 06:06:48;;;;;;;72.90;44.92;;;;;;;27.24;51.74;99246.28;5034321;28;20048;-52
2021/08/13 06:09:14;;;;;;;372.45;335.10;;;;;;;27.21;51.85;99243.38;5049298;28;20018;-52
2021/08/13 06:11:40;;;;;;;95.40;59.33;;;;;;;27.58;51.51;99249.72;5049268;28;20030;-52
2021/08/13 06:14:06;;;;;;;201.10;149.38;;;;;;;28.20;50.31;99260.09;5033505;28;20076;-52
2021/08/13 06:16:31;;;;;;;59.13;40.72;;;;;;;29.06;48.42;99259.19;5033803;28;20036;-52
2021/08/13 06:18:58;;;;;;;21.48;5.78;;;;;;;29.64;46.79;99252.00;5049177;28;20493;-51
2021/08/13 06:21:24;;;;;;;10.73;5.38;;;;;;;30.20;45.34;99253.13;5033774;28;20029;-52
2021/08/13 06:23:50;;;;;;;36.97;21.20;;;;;;;29.95;45.52;99254.66;5033589;28;20055;-52
2021/08/13 06:26:15;;;;;;;20.40;5.70;;;;;;;29.21;46.42;99263.44;5033698;28;20430;-51
2021/08/13 06:28:41;;;;;;;39.28;31.73;;;;;;;29.31;47.30;99254.25;5033619;28;20545;-52
2021/08/13 06:31:07;;;;;;;17.83;5.80;;;;;;;30.34;45.03;99258.41;5033645;28;20025;-52
2021/08/13 06:33:33;;;;;;;64.32;46.15;;;;;;;31.40;42.74;99259.88;5033683;28;20425;-52
2021/08/13 06:35:59;;;;;;;303.90;270.77;;;;;;;32.40;40.98;99261.09;5033432;28;20029;-52
2021/08/13 06:38:24;;;;;;;117.47;86.03;;;;;;;33.14;39.56;99263.34;5033516;28;20091;-52
2021/08/13 06:40:50;;;;;;;469.58;422.02;;;;;;;33.80;38.35;99260.44;5033662;28;20018;-52
2021/08/13 06:43:16;;;;;;;453.42;410.15;;;;;;;34.15;37.02;99257.28;5033636;28;20115;-51
2021/08/13 06:45:42;;;;;;;263.85;237.82;;;;;;;34.54;36.07;99256.81;5048590;28;20084;-52
2021/08/13 06:48:08;;;;;;;151.85;137.30;;;;;;;34.90;35.37;99266.78;5048842;28;20080;-52
2021/08/13 06:50:34;;;;;;;28.98;12.88;;;;;;;34.52;35.71;99264.53;5033230;28;20025;-52
2021/08/13 06:53:00;;;;;;;35.60;19.00;;;;;;;34.37;36.03;99264.13;5048544;28;20060;-52
2021/08/13 06:55:25;;;;;;;31.52;12.18;;;;;;;34.94;35.59;99255.97;5048453;28;20495;-49
2021/08/13 06:57:51;;;;;;;22.42;8.00;;;;;;;35.60;34.18;99252.56;5033064;28;20033;-49
2021/08/13 07:00:17;;;;;;;36.15;18.98;;;;;;;36.04;33.26;99259.81;5048373;28;20060;-50
2021/08/13 07:02:46;;;;;;;38.55;34.80;;;;;;;36.30;32.66;99255.69;5048231;28;20031;-49
2021/08/13 07:05:16;;;;;;;40.42;23.90;;;;;;;36.36;32.44;99260.53;5032986;28;20100;-49
2021/08/13 07:07:43;;;;;;;270.30;214.38;;;;;;;36.45;32.39;99263.03;5032888;28;20021;-50
2021/08/13 07:10:10;;;;;;;236.10;192.00;;;;;;;36.48;32.34;99256.81;5048468;28;20052;-49
2021/08/13 07:12:36;;;;;;;37.85;19.35;;;;;;;36.59;31.92;99262.53;5031516;28;20060;-49
2021/08/13 07:15:03;;;;;;;27.80;15.82;;;;;;;36.58;32.32;99264.47;5032730;28;20554;-49
2021/08/13 07:17:29;;;;;;;23.98;14.23;;;;;;;36.59;32.19;99262.53;5032705;28;20061;-49
2021/08/13 07:19:55;;;;;;;34.42;13.55;;;;;;;36.78;32.05;99270.75;5032681;28;20060;-52
2021/08/13 07:22:20;;;;;;;10.18;3.85;;;;;;;36.86;31.56;99265.41;5047716;28;20052;-52
2021/08/13 07:24:49;;;;;;;105.15;95.47;;;;;;;36.64;32.27;99270.47;5032664;28;20028;-51
2021/08/13 07:27:14;;;;;;;28.83;17.63;;;;;;;37.09;31.32;99271.69;5047000;28;20030;-52
2021/08/13 07:29:40;;;;;;;14.02;6.63;;;;;;;37.92;30.07;99268.34;5032510;28;20443;-51
2021/08/13 07:32:06;;;;;;;12.45;4.88;;;;;;;38.66;28.30;99268.94;5032482;28;20025;-52
2021/08/13 07:34:32;;;;;;;12.15;5.70;;;;;;;39.06;27.77;99268.19;5032358;28;20029;-52
2021/08/13 07:36:57;;;;;;;14.70;9.45;;;;;;;38.96;28.20;99266.88;5047623;28;20040;-52
2021/08/13 07:39:23;;;;;;;13.27;7.25;;;;;;;38.94;27.33;99271.19;5032383;28;20075;-53
2021/08/13 07:41:49;;;;;;;16.35;8.93;;;;;;;38.19;28.16;99275.78;5032294;28;20029;-52
2021/08/13 07:44:15;;;;;;;17.50;5.82;;;;;;;37.36;29.35;99277.25;5047538;28;20022;-52
2021/08/13 07:46:43;;;;;;;36.20;24.30;;;;;;;36.62;30.47;99272.72;5047405;28;20154;-51
2021/08/13 07:49:09;;;;;;;16.98;5.57;;;;;;;36.30;30.28;99275.63;5047501;28;20060;-52
2021/08/13 07:51:35;;;;;;;79.22;72.43;;;;;;;36.05;31.13;99279.72;5047380;28;20522;-52
2021/08/13 07:54:01;;;;;;;23.55;17.63;;;;;;;36.61;30.67;99276.63;5047376;28;20048;-52
2021/08/13 07:56:29;;;;;;;16.05;10.88;;;;;;;37.35;28.79;99281.16;5032082;28;20056;-53
2021/08/13 07:58:55;;;;;;;53.75;48.50;;;;;;;37.71;27.63;99282.53;5032326;28;20029;-50
2021/08/13 08:01:20;;;;;;;50.53;44.95;;;;;;;38.14;27.50;99282.38;5047268;28;20112;-53
2021/08/13 08:03:46;;;;;;;19.80;10.77;;;;;;;38.73;26.92;99279.97;5047231;28;20021;-53
2021/08/13 08:06:12;;;;;;;20.58;12.38;;;;;;;38.71;26.88;99277.59;5031883;28;20029;-53
2021/08/13 08:08:37;;;;;;;58.60;52.58;;;;;;;38.96;26.89;99269.63;5047273;28;20112;-52
2021/08/13 08:11:03;;;;;;;16.27;4.95;;;;;;;39.16;25.87;99285.94;5047207;28;20041;-52
2021/08/13 08:13:29;;;;;;;150.27;135.38;;;;;;;38.48;27.23;99290.63;5031849;28;20415;-52
2021/08/13 08:15:55;;;;;;;15.90;7.63;;;;;;;38.76;26.82;99290.97;5030668;28;20080;-53
2021/08/13 08:18:26;;;;;;;47.45;36.58;;;;;;;38.45;27.24;99291.38;5047105;28;20037;-52
2021/08/13 08:20:52;;;;;;;25.30;16.27;;;;;;;38.40;26.82;99297.19;5047031;28;20037;-52
2021/08/13 08:23:18;;;;;;;56.95;50.33;;;;;;;38.63;26.99;99286.13;5031533;28;20046;-52
2021/08/13 08:25:43;;;;;;;84.22;74.32;;;;;;;39.37;26.30;99293.53;5046950;28;20022;-53
2021/08/13 08:28:09;;;;;;;130.05;115.60;;;;;;;40.02;26.70;99288.53;5031623;28;20112;-53
2021/08/13 08:30:34;;;;;;;25.40;15.52;;;;;;;40.31;26.94;99282.03;5046927;28;20026;-53
2021/08/13 08:33:00;;;;;;;14.02;4.68;;;;;;;40.33;27.21;99285.19;5031718;28;20087;-52
2021/08/13 08:35:26;;;;;;;9.38;4.03;;;;;;;40.51;26.71;99284.47;5030351;28;20017;-53
2021/08/13 08:37:57;;;;;;;23.00;9.82;;;;;;;41.03;26.22;99295.22;5049236;28;20064;-53
2021/08/13 08:40:32;;;;;;;18.05;11.88;;;;;;;41.72;25.29;99300.41;5034436;28;20037;-54
2021/08/13 08:42:59;;;;;;;40.42;26.73;;;;;;;42.13;24.87;99290.09;5035584;28;20060;-52
2021/08/13 08:45:27;;;;;;;10.30;3.70;;;;;;;42.68;23.86;99295.78;5034239;28;20039;-53
2021/08/13 08:48:03;;;;;;;11.80;3.75;;;;;;;43.23;23.48;99293.47;5035463;28;20060;-52
2021/08/13 08:50:31;;;;;;;13.35;3.90;;;;;;;43.27;23.23;99297.00;5035836;28;20398;-53
2021/08/13 08:52:59;;;;;;;9.23;3.88;;;;;;;43.31;23.43;99302.47;5035517;28;20026;-53
2021/08/13 08:55:26;;;;;;;251.55;223.70;;;;;;;43.10;23.44;99298.66;5035385;28;20022;-53
2021/08/13 08:57:54;;;;;;;145.70;121.13;;;;;;;43.13;23.16;99297.88;5035361;28;20026;-52
2021/08/13 09:00:22;;;;;;;24.67;11.60;;;;;;;43.12;23.42;99303.78;5035556;28;20021;-53
2021/08/13 09:02:48;;;;;;;18.27;6.00;;;;;;;43.45;23.10;99303.16;5035270;28;20104;-53
2021/08/13 09:05:15;;;;;;;15.10;6.18;;;;;;;43.86;22.90;99310.69;5035233;28;20017;-53
2021/08/13 09:07:41;;;;;;;12.88;4.30;;;;;;;44.00;22.31;99304.22;5035003;28;20403;-52
2021/08/13 09:10:11;;;;;;;11.40;6.47;;;;;;;44.15;22.18;99306.84;5035111;28;20026;-53
2021/08/13 09:12:38;;;;;;;10.43;4.28;;;;;;;43.88;22.54;99313.03;5035056;28;20029;-52
2021/08/13 09:15:24;;;;;;;11.68;3.97;;;;;;;44.10;22.01;99316.38;5033718;28;20442;-53
2021/08/13 09:18:17;;;;;;;71.88;64.50;;;;;;;44.31;22.58;99309.03;5035093;28;20037;-53
2021/08/13 09:20:47;;;;;;;564.10;507.88;;;;;;;44.75;22.04;99310.06;5034856;28;20028;-54
2021/08/13 09:23:43;;;;;;;45.53;37.40;;;;;;;44.95;21.62;99305.41;5034604;28;20040;-53
2021/08/13 09:26:12;;;;;;;15.90;11.77;;;;;;;44.77;21.57;99310.41;5034811;28;20044;-52
2021/08/13 09:28:40;;;;;;;16.55;6.85;;;;;;;44.63;22.35;99316.94;5034764;28;20075;-52
2021/08/13 09:31:14;;;;;;;26.95;12.18;;;;;;;44.69;22.35;99308.94;5050268;28;20072;-53
2021/08/13 09:33:41;;;;;;;17.10;7.15;;;;;;;44.70;21.92;99302.22;5050026;28;20061;-53
2021/08/13 09:36:07;;;;;;;14.70;4.72;;;;;;;44.67;21.87;99293.56;5033332;28;20171;-53
2021/08/13 09:38:33;;;;;;;29.45;14.10;;;;;;;44.96;22.00;99298.69;5049907;28;20112;-53
2021/08/13 09:41:11;;;;;;;10.50;4.63;;;;;;;45.03;21.41;99298.56;5034536;28;20545;-52
2021/08/13 09:44:02;;;;;;;16.55;6.18;;;;;;;44.92;21.65;99289.66;5034495;28;20036;-52
2021/08/13 09:46:30;;;;;;;11.90;4.68;;;;;;;44.62;21.53;99294.00;5034620;28;20033;-52
2021/08/13 09:49:16;;;;;;;14.23;4.05;;;;;;;44.62;21.22;99296.78;5033512;28;20498;-52
2021/08/13 09:51:42;;;;;;;10.68;3.45;;;;;;;44.93;21.37;99302.28;5033364;28;20091;-52
2021/08/13 09:54:09;;;;;;;13.70;3.65;;;;;;;44.95;21.51;99296.34;5033007;28;20103;-53
2021/08/13 09:56:40;;;;;;;17.05;5.72;;;;;;;44.79;21.58;99305.25;5034199;28;20035;-52
2021/08/13 09:59:32;;;;;;;10.00;3.17;;;;;;;44.95;21.59;99293.56;5034527;28;20037;-52
2021/08/13 10:01:58;;;;;;;14.95;6.80;;;;;;;45.09;21.19;99303.63;5030021;28;20569;-53
2021/08/13 10:04:33;;;;;;;11.15;4.72;;;;;;;44.92;21.57;99289.66;5049381;28;20037;-54
2021/08/13 10:06:59;;;;;;;13.77;9.32;;;;;;;44.44;21.78;99296.22;5033027;28;20037;-52
2021/08/13 10:09:25;;;;;;;12.23;3.20;;;;;;;44.11;22.30;99300.56;5032753;28;20037;-53
2021/08/13 10:11:56;;;;;;;35.35;12.05;;;;;;;44.13;21.90;99293.44;5033992;28;20495;-52
2021/08/13 10:14:40;;;;;;;15.75;7.03;;;;;;;44.25;21.21;99289.31;5033915;28;20025;-53
2021/08/13 10:17:17;;;;;;;9.93;3.72;;;;;;;43.85;21.64;99287.00;5033847;28;20022;-53
2021/08/13 10:19:46;;;;;;;9.30;3.53;;;;;;;43.47;22.70;99281.44;5033874;28;20107;-53
2021/08/13 10:22:15;;;;;;;8.20;3.53;;;;;;;43.71;22.27;99283.59;5032306;28;20045;-52
2021/08/13 10:24:46;;;;;;;15.65;9.02;;;;;;;44.10;21.68;99285.97;5033845;28;20499;-53
2021/08/13 10:27:14;;;;;;;11.27;5.53;;;;;;;44.17;21.39;99268.47;5033873;28;20037;-54
2021/08/13 10:29:47;;;;;;;10.95;3.53;;;;;;;44.25;21.16;99268.00;5032471;28;20447;-52
2021/08/13 10:32:19;;;;;;;10.18;3.03;;;;;;;44.35;20.66;99273.78;5032396;28;20030;-53
2021/08/13 10:34:44;;;;;;;6.82;3.08;;;;;;;44.39;20.00;99271.75;5033555;28;20034;-53
2021/08/13 10:37:13;;;;;;;28.65;20.67;;;;;;;44.57;20.31;99269.53;5033424;28;20022;-53
2021/08/13 10:39:42;;;;;;;9.98;4.35;;;;;;;44.46;21.02;99275.22;5033471;28;20028;-53
2021/08/13 10:42:14;;;;;;;11.73;3.28;;;;;;;44.40;21.06;99284.41;5032117;28;20029;-52
2021/08/13 10:44:48;;;;;;;10.30;3.85;;;;;;;44.59;20.95;99277.44;5032181;28;20029;-53
2021/08/13 10:47:22;;;;;;;28.55;16.33;;;;;;;44.43;21.46;99273.28;5033577;28;20041;-52
2021/08/13 10:49:50;;;;;;;10.60;3.65;;;;;;;44.65;21.06;99270.22;5033348;28;20025;-53
2021/08/13 10:52:30;;;;;;;7.15;3.33;;;;;;;43.93;21.03;99273.06;5048353;28;20056;-52
2021/08/13 10:54:56;;;;;;;10.98;5.60;;;;;;;43.45;22.14;99271.97;5031941;28;20033;-51
2021/08/13 10:57:47;;;;;;;18.77;11.10;;;;;;;43.68;21.51;99274.91;5048474;28;20499;-53
2021/08/13 11:00:15;;;;;;;9.00;3.80;;;;;;;43.84;21.53;99271.59;5032977;28;20508;-52
2021/08/13 11:02:40;;;;;;;11.18;4.18;;;;;;;43.92;21.67;99272.31;5031744;28;20034;-52
2021/08/13 11:05:06;;;;;;;10.25;3.15;;;;;;;43.88;21.55;99275.09;5048409;28;20067;-52
2021/08/13 11:07:58;;;;;;;11.57;3.33;;;;;;;43.85;21.62;99273.19;5032878;28;20161;-53
2021/08/13 11:10:39;;;;;;;11.55;4.22;;;;;;;43.85;22.35;99270.41;5031527;28;20038;-53
2021/08/13 11:13:12;;;;;;;12.07;3.50;;;;;;;43.48;22.26;99265.63;5032920;28;20513;-53
2021/08/13 11:15:38;;;;;;;;;;;;;;;43.10;22.97;99262.75;5033240;28;20021;-54
2021/08/13 11:18:46;;;;;;;9.98;3.20;;;;;;;42.96;23.25;99257.34;5032837;28;19920;-53
2021/08/13 11:21:49;;;;;;;8.43;2.50;;;;;;;43.04;23.55;99267.94;5031493;28;20037;-53
2021/08/13 11:24:17;;;;;;;20.92;3.92;;;;;;;42.88;23.50;99265.72;5031446;28;20503;-52
2021/08/13 11:26:47;;;;;;;7.70;3.08;;;;;;;42.86;23.34;99259.81;5032741;28;20049;-52